sensor_id;sensor_type;location;lat;lon;timestamp;P1;durP1;ratioP1;P2;durP2;ratioP2
2604;SDS011;1312;50.298;8.520;2024-03-02T00:00:49;13.93;;;12.60;;
2604;SDS011;1312;50.298;8.520;2024-03-02T00:03:18;15.60;;;14.10;;
2604;SDS011;1312;50.298;8.520;2024-03-02T00:05:50;14.27;;;12.87;;
2604;SDS011;1312;50.298;8.520;2024-03-02T00:08:22;17.97;;;13.70;;
2604;SDS011;1312;50.298;8.520;2024-03-02T00:10:52;14.23;;;12.83;;
2604;SDS011;1312;50.298;8.520;2024-03-02T00:13:24;14.80;;;13.40;;
2604;SDS011;1312;50.298;8.520;2024-03-02T00:15:53;15.20;;;13.33;;
2604;SDS011;1312;50.298;8.520;2024-03-02T00:18:24;15.70;;;14.10;;
2604;SDS011;1312;50.298;8.520;2024-03-02T00:20:55;16.80;;;13.33;;
2604;SDS011;1312;50.298;8.520;2024-03-02T00:23:24;16.40;;;14.80;;
2604;SDS011;1312;50.298;8.520;2024-03-02T00:25:55;15.07;;;13.57;;
2604;SDS011;1312;50.298;8.520;2024-03-02T00:28:23;13.67;;;12.30;;
2604;SDS011;1312;50.298;8.520;2024-03-02T00:30:56;11.37;;;10.27;;
2604;SDS011;1312;50.298;8.520;2024-03-02T00:33:30;12.00;;;10.80;;
2604;SDS011;1312;50.298;8.520;2024-03-02T00:36:01;13.97;;;12.33;;
2604;SDS011;1312;50.298;8.520;2024-03-02T00:38:30;15.50;;;13.73;;
2604;SDS011;1312;50.298;8.520;2024-03-02T00:40:58;14.53;;;12.73;;
2604;SDS011;1312;50.298;8.520;2024-03-02T00:46:15;16.10;;;13.10;;
2604;SDS011;1312;50.298;8.520;2024-03-02T00:48:50;13.27;;;11.87;;
2604;SDS011;1312;50.298;8.520;2024-03-02T00:51:23;15.30;;;13.70;;
2604;SDS011;1312;50.298;8.520;2024-03-02T00:53:53;15.47;;;13.97;;
2604;SDS011;1312;50.298;8.520;2024-03-02T00:56:23;14.10;;;12.70;;
2604;SDS011;1312;50.298;8.520;2024-03-02T00:58:52;19.03;;;15.43;;
2604;SDS011;1312;50.298;8.520;2024-03-02T01:01:20;14.10;;;12.63;;
2604;SDS011;1312;50.298;8.520;2024-03-02T01:03:49;15.00;;;13.50;;
2604;SDS011;1312;50.298;8.520;2024-03-02T01:06:18;15.27;;;13.07;;
2604;SDS011;1312;50.298;8.520;2024-03-02T01:08:47;14.00;;;12.60;;
2604;SDS011;1312;50.298;8.520;2024-03-02T01:11:18;15.23;;;13.63;;
2604;SDS011;1312;50.298;8.520;2024-03-02T01:13:48;15.20;;;13.77;;
2604;SDS011;1312;50.298;8.520;2024-03-02T01:16:16;17.77;;;15.40;;
2604;SDS011;1312;50.298;8.520;2024-03-02T01:18:44;18.60;;;16.63;;
2604;SDS011;1312;50.298;8.520;2024-03-02T01:21:13;20.70;;;16.57;;
2604;SDS011;1312;50.298;8.520;2024-03-02T01:23:41;18.50;;;16.60;;
2604;SDS011;1312;50.298;8.520;2024-03-02T01:26:10;18.60;;;15.83;;
2604;SDS011;1312;50.298;8.520;2024-03-02T01:28:38;17.50;;;15.70;;
2604;SDS011;1312;50.298;8.520;2024-03-02T01:31:07;18.63;;;16.80;;
2604;SDS011;1312;50.298;8.520;2024-03-02T01:33:34;22.87;;;18.80;;
2604;SDS011;1312;50.298;8.520;2024-03-02T01:36:03;19.30;;;17.07;;
2604;SDS011;1312;50.298;8.520;2024-03-02T01:38:31;17.60;;;15.73;;
2604;SDS011;1312;50.298;8.520;2024-03-02T01:41:00;25.20;;;19.03;;
2604;SDS011;1312;50.298;8.520;2024-03-02T01:43:30;20.23;;;17.70;;
2604;SDS011;1312;50.298;8.520;2024-03-02T01:45:58;19.83;;;17.73;;
2604;SDS011;1312;50.298;8.520;2024-03-02T01:48:26;20.13;;;17.60;;
2604;SDS011;1312;50.298;8.520;2024-03-02T01:50:53;22.67;;;18.33;;
2604;SDS011;1312;50.298;8.520;2024-03-02T01:53:21;18.57;;;16.40;;
2604;SDS011;1312;50.298;8.520;2024-03-02T01:55:49;20.03;;;17.53;;
2604;SDS011;1312;50.298;8.520;2024-03-02T01:58:17;20.20;;;18.07;;
2604;SDS011;1312;50.298;8.520;2024-03-02T02:00:47;23.30;;;19.07;;
2604;SDS011;1312;50.298;8.520;2024-03-02T02:03:16;28.00;;;21.67;;
2604;SDS011;1312;50.298;8.520;2024-03-02T02:05:45;22.47;;;19.67;;
2604;SDS011;1312;50.298;8.520;2024-03-02T02:08:14;24.80;;;20.57;;
2604;SDS011;1312;50.298;8.520;2024-03-02T02:10:42;23.63;;;19.27;;
2604;SDS011;1312;50.298;8.520;2024-03-02T02:13:10;23.93;;;20.23;;
2604;SDS011;1312;50.298;8.520;2024-03-02T02:15:38;18.80;;;16.80;;
2604;SDS011;1312;50.298;8.520;2024-03-02T02:18:07;17.73;;;15.83;;
2604;SDS011;1312;50.298;8.520;2024-03-02T02:20:35;18.40;;;16.03;;
2604;SDS011;1312;50.298;8.520;2024-03-02T02:23:04;15.77;;;14.23;;
2604;SDS011;1312;50.298;8.520;2024-03-02T02:25:34;17.03;;;13.70;;
2604;SDS011;1312;50.298;8.520;2024-03-02T02:28:02;15.30;;;13.87;;
2604;SDS011;1312;50.298;8.520;2024-03-02T02:30:31;15.97;;;14.13;;
2604;SDS011;1312;50.298;8.520;2024-03-02T02:33:00;15.20;;;13.63;;
2604;SDS011;1312;50.298;8.520;2024-03-02T02:35:29;14.27;;;12.87;;
2604;SDS011;1312;50.298;8.520;2024-03-02T02:37:57;14.40;;;12.80;;
2604;SDS011;1312;50.298;8.520;2024-03-02T02:40:27;14.87;;;13.47;;
2604;SDS011;1312;50.298;8.520;2024-03-02T02:42:56;17.13;;;12.83;;
2604;SDS011;1312;50.298;8.520;2024-03-02T02:45:25;13.67;;;12.30;;
2604;SDS011;1312;50.298;8.520;2024-03-02T02:47:53;12.80;;;11.40;;
2604;SDS011;1312;50.298;8.520;2024-03-02T02:50:21;15.53;;;11.93;;
2604;SDS011;1312;50.298;8.520;2024-03-02T02:52:49;13.43;;;12.03;;
2604;SDS011;1312;50.298;8.520;2024-03-02T02:55:17;12.27;;;11.13;;
2604;SDS011;1312;50.298;8.520;2024-03-02T02:57:46;12.10;;;10.90;;
2604;SDS011;1312;50.298;8.520;2024-03-02T03:00:15;12.93;;;11.50;;
2604;SDS011;1312;50.298;8.520;2024-03-02T03:02:46;19.90;;;18.40;;
2604;SDS011;1312;50.298;8.520;2024-03-02T03:05:17;19.97;;;18.40;;
2604;SDS011;1312;50.298;8.520;2024-03-02T03:07:46;19.60;;;17.70;;
2604;SDS011;1312;50.298;8.520;2024-03-02T03:10:16;19.20;;;17.70;;
2604;SDS011;1312;50.298;8.520;2024-03-02T03:12:49;18.50;;;17.20;;
2604;SDS011;1312;50.298;8.520;2024-03-02T03:15:18;19.30;;;17.57;;
2604;SDS011;1312;50.298;8.520;2024-03-02T03:17:46;18.70;;;17.30;;
2604;SDS011;1312;50.298;8.520;2024-03-02T03:20:14;19.70;;;18.00;;
2604;SDS011;1312;50.298;8.520;2024-03-02T03:22:42;18.60;;;17.10;;
2604;SDS011;1312;50.298;8.520;2024-03-02T03:25:11;18.40;;;17.00;;
2604;SDS011;1312;50.298;8.520;2024-03-02T03:27:39;19.33;;;17.83;;
2604;SDS011;1312;50.298;8.520;2024-03-02T03:30:10;20.87;;;19.30;;
2604;SDS011;1312;50.298;8.520;2024-03-02T03:32:38;20.33;;;18.73;;
2604;SDS011;1312;50.298;8.520;2024-03-02T03:35:06;20.17;;;18.70;;
2604;SDS011;1312;50.298;8.520;2024-03-02T03:37:35;19.80;;;18.20;;
2604;SDS011;1312;50.298;8.520;2024-03-02T03:40:03;18.27;;;16.87;;
2604;SDS011;1312;50.298;8.520;2024-03-02T03:42:36;19.67;;;18.07;;
2604;SDS011;1312;50.298;8.520;2024-03-02T03:45:05;20.10;;;18.60;;
2604;SDS011;1312;50.298;8.520;2024-03-02T03:47:35;20.07;;;18.47;;
2604;SDS011;1312;50.298;8.520;2024-03-02T03:50:03;20.03;;;18.43;;
2604;SDS011;1312;50.298;8.520;2024-03-02T03:52:34;21.27;;;19.57;;
2604;SDS011;1312;50.298;8.520;2024-03-02T03:55:02;20.40;;;18.83;;
2604;SDS011;1312;50.298;8.520;2024-03-02T03:57:32;21.50;;;19.83;;
2604;SDS011;1312;50.298;8.520;2024-03-02T04:00:00;21.90;;;20.10;;
2604;SDS011;1312;50.298;8.520;2024-03-02T04:02:27;20.77;;;19.17;;
2604;SDS011;1312;50.298;8.520;2024-03-02T04:04:57;21.80;;;20.07;;
2604;SDS011;1312;50.298;8.520;2024-03-02T04:07:25;22.20;;;20.40;;
2604;SDS011;1312;50.298;8.520;2024-03-02T04:09:53;22.97;;;20.97;;
2604;SDS011;1312;50.298;8.520;2024-03-02T04:12:20;21.17;;;19.50;;
2604;SDS011;1312;50.298;8.520;2024-03-02T04:14:48;21.43;;;19.53;;
2604;SDS011;1312;50.298;8.520;2024-03-02T04:17:16;12.43;;;11.27;;
2604;SDS011;1312;50.298;8.520;2024-03-02T04:19:44;13.47;;;12.07;;
2604;SDS011;1312;50.298;8.520;2024-03-02T04:22:13;12.37;;;11.13;;
2604;SDS011;1312;50.298;8.520;2024-03-02T04:24:50;13.30;;;12.00;;
2604;SDS011;1312;50.298;8.520;2024-03-02T04:27:18;13.70;;;12.30;;
2604;SDS011;1312;50.298;8.520;2024-03-02T04:29:46;12.97;;;11.77;;
2604;SDS011;1312;50.298;8.520;2024-03-02T04:32:14;13.83;;;12.40;;
2604;SDS011;1312;50.298;8.520;2024-03-02T04:34:43;12.10;;;10.90;;
2604;SDS011;1312;50.298;8.520;2024-03-02T04:37:10;11.80;;;10.60;;
2604;SDS011;1312;50.298;8.520;2024-03-02T04:39:41;11.90;;;10.80;;
2604;SDS011;1312;50.298;8.520;2024-03-02T04:42:09;11.80;;;10.30;;
2604;SDS011;1312;50.298;8.520;2024-03-02T04:44:37;11.53;;;10.43;;
2604;SDS011;1312;50.298;8.520;2024-03-02T04:47:05;11.20;;;10.10;;
2604;SDS011;1312;50.298;8.520;2024-03-02T04:49:33;10.67;;;9.67;;
2604;SDS011;1312;50.298;8.520;2024-03-02T04:52:02;9.07;;;8.23;;
2604;SDS011;1312;50.298;8.520;2024-03-02T04:54:30;9.40;;;8.50;;
2604;SDS011;1312;50.298;8.520;2024-03-02T04:57:00;8.97;;;8.07;;
2604;SDS011;1312;50.298;8.520;2024-03-02T04:59:28;9.57;;;8.57;;
2604;SDS011;1312;50.298;8.520;2024-03-02T05:01:57;10.77;;;9.87;;
2604;SDS011;1312;50.298;8.520;2024-03-02T05:04:24;10.07;;;9.13;;
2604;SDS011;1312;50.298;8.520;2024-03-02T05:06:52;12.03;;;10.53;;
2604;SDS011;1312;50.298;8.520;2024-03-02T05:09:23;10.70;;;9.73;;
2604;SDS011;1312;50.298;8.520;2024-03-02T05:11:51;10.20;;;9.30;;
2604;SDS011;1312;50.298;8.520;2024-03-02T05:14:50;10.40;;;9.50;;
2604;SDS011;1312;50.298;8.520;2024-03-02T05:17:19;9.80;;;9.00;;
2604;SDS011;1312;50.298;8.520;2024-03-02T05:19:46;10.37;;;9.43;;
2604;SDS011;1312;50.298;8.520;2024-03-02T05:22:15;9.90;;;9.00;;
2604;SDS011;1312;50.298;8.520;2024-03-02T05:24:43;10.53;;;9.53;;
2604;SDS011;1312;50.298;8.520;2024-03-02T05:27:11;10.53;;;9.60;;
2604;SDS011;1312;50.298;8.520;2024-03-02T05:29:39;11.23;;;10.20;;
2604;SDS011;1312;50.298;8.520;2024-03-02T05:32:08;11.93;;;10.73;;
2604;SDS011;1312;50.298;8.520;2024-03-02T05:34:36;11.53;;;10.43;;
2604;SDS011;1312;50.298;8.520;2024-03-02T05:37:04;11.10;;;10.00;;
2604;SDS011;1312;50.298;8.520;2024-03-02T05:39:32;10.33;;;9.40;;
2604;SDS011;1312;50.298;8.520;2024-03-02T05:42:00;10.07;;;9.17;;
2604;SDS011;1312;50.298;8.520;2024-03-02T05:44:29;9.87;;;9.00;;
2604;SDS011;1312;50.298;8.520;2024-03-02T05:46:58;10.60;;;9.60;;
2604;SDS011;1312;50.298;8.520;2024-03-02T05:49:27;10.33;;;9.33;;
2604;SDS011;1312;50.298;8.520;2024-03-02T05:51:56;10.73;;;9.57;;
2604;SDS011;1312;50.298;8.520;2024-03-02T05:54:24;10.63;;;9.63;;
2604;SDS011;1312;50.298;8.520;2024-03-02T05:56:52;10.33;;;9.40;;
2604;SDS011;1312;50.298;8.520;2024-03-02T05:59:20;10.97;;;9.47;;
2604;SDS011;1312;50.298;8.520;2024-03-02T06:01:48;11.60;;;10.70;;
2604;SDS011;1312;50.298;8.520;2024-03-02T06:04:17;10.53;;;9.50;;
2604;SDS011;1312;50.298;8.520;2024-03-02T06:06:46;15.50;;;14.00;;
2604;SDS011;1312;50.298;8.520;2024-03-02T06:09:16;19.33;;;16.20;;
2604;SDS011;1312;50.298;8.520;2024-03-02T06:11:46;18.53;;;14.97;;
2604;SDS011;1312;50.298;8.520;2024-03-02T06:14:14;24.30;;;18.67;;
2604;SDS011;1312;50.298;8.520;2024-03-02T06:16:42;25.70;;;20.60;;
2604;SDS011;1312;50.298;8.520;2024-03-02T06:19:10;25.73;;;20.50;;
2604;SDS011;1312;50.298;8.520;2024-03-02T06:21:38;23.90;;;20.83;;
2604;SDS011;1312;50.298;8.520;2024-03-02T06:24:08;23.27;;;19.70;;
2604;SDS011;1312;50.298;8.520;2024-03-02T06:26:35;19.43;;;17.00;;
2604;SDS011;1312;50.298;8.520;2024-03-02T06:29:03;23.40;;;18.43;;
2604;SDS011;1312;50.298;8.520;2024-03-02T06:31:31;23.83;;;20.07;;
2604;SDS011;1312;50.298;8.520;2024-03-02T06:33:59;27.33;;;22.33;;
2604;SDS011;1312;50.298;8.520;2024-03-02T06:36:27;24.67;;;20.87;;
2604;SDS011;1312;50.298;8.520;2024-03-02T06:38:55;9.67;;;8.77;;
2604;SDS011;1312;50.298;8.520;2024-03-02T06:41:24;8.43;;;7.47;;
2604;SDS011;1312;50.298;8.520;2024-03-02T06:43:53;8.67;;;7.77;;
2604;SDS011;1312;50.298;8.520;2024-03-02T06:46:26;8.93;;;7.97;;
2604;SDS011;1312;50.298;8.520;2024-03-02T06:48:54;7.87;;;7.10;;
2604;SDS011;1312;50.298;8.520;2024-03-02T06:51:22;8.87;;;7.60;;
2604;SDS011;1312;50.298;8.520;2024-03-02T06:53:50;8.80;;;7.90;;
2604;SDS011;1312;50.298;8.520;2024-03-02T06:56:18;8.93;;;8.00;;
2604;SDS011;1312;50.298;8.520;2024-03-02T06:58:47;8.70;;;8.00;;
2604;SDS011;1312;50.298;8.520;2024-03-02T07:01:15;8.80;;;7.90;;
2604;SDS011;1312;50.298;8.520;2024-03-02T07:03:43;9.43;;;8.50;;
2604;SDS011;1312;50.298;8.520;2024-03-02T07:06:11;8.87;;;7.97;;
2604;SDS011;1312;50.298;8.520;2024-03-02T07:08:39;20.50;;;14.70;;
2604;SDS011;1312;50.298;8.520;2024-03-02T07:11:07;22.70;;;18.07;;
2604;SDS011;1312;50.298;8.520;2024-03-02T07:13:35;29.63;;;22.47;;
2604;SDS011;1312;50.298;8.520;2024-03-02T07:16:04;28.67;;;21.43;;
2604;SDS011;1312;50.298;8.520;2024-03-02T07:18:58;32.87;;;23.20;;
2604;SDS011;1312;50.298;8.520;2024-03-02T07:21:28;28.20;;;22.40;;
2604;SDS011;1312;50.298;8.520;2024-03-02T07:23:56;29.60;;;19.40;;
2604;SDS011;1312;50.298;8.520;2024-03-02T07:26:24;32.23;;;23.00;;
2604;SDS011;1312;50.298;8.520;2024-03-02T07:28:54;32.40;;;21.27;;
2604;SDS011;1312;50.298;8.520;2024-03-02T07:31:24;34.13;;;23.63;;
2604;SDS011;1312;50.298;8.520;2024-03-02T07:33:52;29.57;;;23.23;;
2604;SDS011;1312;50.298;8.520;2024-03-02T07:36:19;22.63;;;18.63;;
2604;SDS011;1312;50.298;8.520;2024-03-02T07:38:47;20.93;;;18.10;;
2604;SDS011;1312;50.298;8.520;2024-03-02T07:41:16;20.97;;;18.63;;
2604;SDS011;1312;50.298;8.520;2024-03-02T07:43:44;22.00;;;17.70;;
2604;SDS011;1312;50.298;8.520;2024-03-02T07:46:12;19.17;;;16.23;;
2604;SDS011;1312;50.298;8.520;2024-03-02T07:48:42;18.73;;;15.30;;
2604;SDS011;1312;50.298;8.520;2024-03-02T07:51:10;17.90;;;14.90;;
2604;SDS011;1312;50.298;8.520;2024-03-02T07:53:37;16.77;;;14.97;;
2604;SDS011;1312;50.298;8.520;2024-03-02T07:56:06;16.47;;;13.97;;
2604;SDS011;1312;50.298;8.520;2024-03-02T07:58:33;17.67;;;14.97;;
2604;SDS011;1312;50.298;8.520;2024-03-02T08:01:01;19.90;;;14.70;;
2604;SDS011;1312;50.298;8.520;2024-03-02T08:03:30;15.73;;;13.77;;
2604;SDS011;1312;50.298;8.520;2024-03-02T08:06:02;17.33;;;15.00;;
2604;SDS011;1312;50.298;8.520;2024-03-02T08:08:31;16.87;;;15.07;;
2604;SDS011;1312;50.298;8.520;2024-03-02T08:10:59;17.97;;;16.17;;
2604;SDS011;1312;50.298;8.520;2024-03-02T08:13:27;21.37;;;16.50;;
2604;SDS011;1312;50.298;8.520;2024-03-02T08:15:55;19.10;;;16.33;;
2604;SDS011;1312;50.298;8.520;2024-03-02T08:18:23;20.63;;;17.53;;
2604;SDS011;1312;50.298;8.520;2024-03-02T08:20:51;18.63;;;16.70;;
2604;SDS011;1312;50.298;8.520;2024-03-02T08:23:20;18.70;;;16.70;;
2604;SDS011;1312;50.298;8.520;2024-03-02T08:25:49;18.27;;;15.77;;
2604;SDS011;1312;50.298;8.520;2024-03-02T08:28:17;16.97;;;15.17;;
2604;SDS011;1312;50.298;8.520;2024-03-02T08:30:45;18.00;;;15.87;;
2604;SDS011;1312;50.298;8.520;2024-03-02T08:33:13;17.70;;;15.93;;
2604;SDS011;1312;50.298;8.520;2024-03-02T08:35:42;20.50;;;15.80;;
2604;SDS011;1312;50.298;8.520;2024-03-02T08:38:10;19.83;;;17.73;;
2604;SDS011;1312;50.298;8.520;2024-03-02T08:40:39;14.37;;;12.87;;
2604;SDS011;1312;50.298;8.520;2024-03-02T08:43:07;9.13;;;8.33;;
2604;SDS011;1312;50.298;8.520;2024-03-02T08:45:35;11.90;;;10.73;;
2604;SDS011;1312;50.298;8.520;2024-03-02T08:48:06;8.73;;;8.03;;
2604;SDS011;1312;50.298;8.520;2024-03-02T08:50:35;8.47;;;7.67;;
2604;SDS011;1312;50.298;8.520;2024-03-02T08:53:04;7.77;;;7.00;;
2604;SDS011;1312;50.298;8.520;2024-03-02T08:55:31;7.47;;;6.80;;
2604;SDS011;1312;50.298;8.520;2024-03-02T08:58:01;8.30;;;7.70;;
2604;SDS011;1312;50.298;8.520;2024-03-02T09:00:29;7.90;;;7.10;;
2604;SDS011;1312;50.298;8.520;2024-03-02T09:02:58;6.47;;;5.97;;
2604;SDS011;1312;50.298;8.520;2024-03-02T09:05:26;7.80;;;7.10;;
2604;SDS011;1312;50.298;8.520;2024-03-02T09:07:54;6.87;;;6.27;;
2604;SDS011;1312;50.298;8.520;2024-03-02T09:10:22;7.70;;;7.00;;
2604;SDS011;1312;50.298;8.520;2024-03-02T09:12:53;7.63;;;7.00;;
2604;SDS011;1312;50.298;8.520;2024-03-02T09:15:23;7.47;;;6.77;;
2604;SDS011;1312;50.298;8.520;2024-03-02T09:17:51;7.87;;;7.07;;
2604;SDS011;1312;50.298;8.520;2024-03-02T09:20:19;8.20;;;7.40;;
2604;SDS011;1312;50.298;8.520;2024-03-02T09:22:47;7.97;;;7.20;;
2604;SDS011;1312;50.298;8.520;2024-03-02T09:25:15;8.00;;;7.40;;
2604;SDS011;1312;50.298;8.520;2024-03-02T09:27:43;7.73;;;7.13;;
2604;SDS011;1312;50.298;8.520;2024-03-02T09:30:11;9.60;;;8.70;;
2604;SDS011;1312;50.298;8.520;2024-03-02T09:32:42;9.03;;;8.13;;
2604;SDS011;1312;50.298;8.520;2024-03-02T09:35:12;9.00;;;8.30;;
2604;SDS011;1312;50.298;8.520;2024-03-02T09:37:40;8.53;;;7.73;;
2604;SDS011;1312;50.298;8.520;2024-03-02T09:40:08;7.80;;;7.20;;
2604;SDS011;1312;50.298;8.520;2024-03-02T09:42:37;8.40;;;7.63;;
2604;SDS011;1312;50.298;8.520;2024-03-02T09:45:05;8.50;;;7.90;;
2604;SDS011;1312;50.298;8.520;2024-03-02T09:47:34;10.40;;;9.60;;
2604;SDS011;1312;50.298;8.520;2024-03-02T09:50:04;10.37;;;9.57;;
2604;SDS011;1312;50.298;8.520;2024-03-02T09:52:32;9.67;;;8.87;;
2604;SDS011;1312;50.298;8.520;2024-03-02T09:55:01;10.40;;;9.37;;
2604;SDS011;1312;50.298;8.520;2024-03-02T09:57:31;10.20;;;9.40;;
2604;SDS011;1312;50.298;8.520;2024-03-02T10:00:00;12.27;;;11.23;;
2604;SDS011;1312;50.298;8.520;2024-03-02T10:02:28;10.47;;;9.57;;
2604;SDS011;1312;50.298;8.520;2024-03-02T10:04:56;11.80;;;10.80;;
2604;SDS011;1312;50.298;8.520;2024-03-02T10:07:27;11.97;;;10.87;;
2604;SDS011;1312;50.298;8.520;2024-03-02T10:09:55;12.73;;;11.63;;
2604;SDS011;1312;50.298;8.520;2024-03-02T10:12:23;11.60;;;10.70;;
2604;SDS011;1312;50.298;8.520;2024-03-02T10:14:52;9.50;;;8.70;;
2604;SDS011;1312;50.298;8.520;2024-03-02T10:17:34;10.67;;;9.67;;
2604;SDS011;1312;50.298;8.520;2024-03-02T10:22:53;11.23;;;10.23;;
2604;SDS011;1312;50.298;8.520;2024-03-02T10:25:31;11.47;;;10.47;;
2604;SDS011;1312;50.298;8.520;2024-03-02T10:28:03;10.20;;;9.30;;
2604;SDS011;1312;50.298;8.520;2024-03-02T10:30:32;10.47;;;9.57;;
2604;SDS011;1312;50.298;8.520;2024-03-02T10:33:01;10.63;;;9.73;;
2604;SDS011;1312;50.298;8.520;2024-03-02T10:35:29;9.03;;;8.23;;
2604;SDS011;1312;50.298;8.520;2024-03-02T10:37:59;10.13;;;9.40;;
2604;SDS011;1312;50.298;8.520;2024-03-02T10:40:29;9.57;;;8.77;;
2604;SDS011;1312;50.298;8.520;2024-03-02T10:42:58;8.97;;;8.17;;
2604;SDS011;1312;50.298;8.520;2024-03-02T10:45:29;7.43;;;6.83;;
2604;SDS011;1312;50.298;8.520;2024-03-02T10:47:58;7.40;;;6.80;;
2604;SDS011;1312;50.298;8.520;2024-03-02T10:50:27;7.10;;;6.57;;
2604;SDS011;1312;50.298;8.520;2024-03-02T10:52:55;7.17;;;6.63;;
2604;SDS011;1312;50.298;8.520;2024-03-02T10:55:25;6.03;;;5.63;;
2604;SDS011;1312;50.298;8.520;2024-03-02T10:57:54;7.17;;;6.47;;
2604;SDS011;1312;50.298;8.520;2024-03-02T11:00:23;6.30;;;5.80;;
2604;SDS011;1312;50.298;8.520;2024-03-02T11:02:57;5.80;;;5.40;;
2604;SDS011;1312;50.298;8.520;2024-03-02T11:05:31;8.07;;;7.37;;
2604;SDS011;1312;50.298;8.520;2024-03-02T11:08:01;8.40;;;7.80;;
2604;SDS011;1312;50.298;8.520;2024-03-02T11:10:35;5.90;;;5.40;;
2604;SDS011;1312;50.298;8.520;2024-03-02T11:13:08;5.97;;;5.40;;
2604;SDS011;1312;50.298;8.520;2024-03-02T11:15:39;5.90;;;5.40;;
2604;SDS011;1312;50.298;8.520;2024-03-02T11:18:07;5.53;;;4.93;;
2604;SDS011;1312;50.298;8.520;2024-03-02T11:20:36;5.10;;;4.70;;
2604;SDS011;1312;50.298;8.520;2024-03-02T11:23:06;5.07;;;4.57;;
2604;SDS011;1312;50.298;8.520;2024-03-02T11:25:36;5.23;;;4.83;;
2604;SDS011;1312;50.298;8.520;2024-03-02T11:28:06;5.50;;;5.10;;
2604;SDS011;1312;50.298;8.520;2024-03-02T11:30:51;6.17;;;5.77;;
2604;SDS011;1312;50.298;8.520;2024-03-02T11:33:23;5.47;;;5.17;;
2604;SDS011;1312;50.298;8.520;2024-03-02T11:35:54;4.67;;;4.37;;
2604;SDS011;1312;50.298;8.520;2024-03-02T11:38:28;5.27;;;4.97;;
2604;SDS011;1312;50.298;8.520;2024-03-02T11:40:58;5.07;;;4.67;;
2604;SDS011;1312;50.298;8.520;2024-03-02T11:43:27;6.50;;;5.17;;
2604;SDS011;1312;50.298;8.520;2024-03-02T11:45:59;5.77;;;5.37;;
2604;SDS011;1312;50.298;8.520;2024-03-02T11:48:31;7.50;;;6.90;;
2604;SDS011;1312;50.298;8.520;2024-03-02T11:50:59;8.87;;;8.17;;
2604;SDS011;1312;50.298;8.520;2024-03-02T11:53:28;7.70;;;7.20;;
2604;SDS011;1312;50.298;8.520;2024-03-02T11:56:01;6.97;;;6.47;;
2604;SDS011;1312;50.298;8.520;2024-03-02T11:58:29;8.00;;;7.40;;
2604;SDS011;1312;50.298;8.520;2024-03-02T12:00:57;11.43;;;10.73;;
2604;SDS011;1312;50.298;8.520;2024-03-02T12:03:26;9.57;;;8.90;;
2604;SDS011;1312;50.298;8.520;2024-03-02T12:05:54;10.70;;;10.10;;
2604;SDS011;1312;50.298;8.520;2024-03-02T12:08:22;10.60;;;9.90;;
2604;SDS011;1312;50.298;8.520;2024-03-02T12:10:58;10.70;;;10.00;;
2604;SDS011;1312;50.298;8.520;2024-03-02T12:13:30;11.10;;;10.50;;
2604;SDS011;1312;50.298;8.520;2024-03-02T12:15:59;11.37;;;10.63;;
2604;SDS011;1312;50.298;8.520;2024-03-02T12:18:27;12.00;;;11.30;;
2604;SDS011;1312;50.298;8.520;2024-03-02T12:20:55;11.30;;;10.60;;
2604;SDS011;1312;50.298;8.520;2024-03-02T12:23:25;7.80;;;7.20;;
2604;SDS011;1312;50.298;8.520;2024-03-02T12:25:53;8.60;;;8.00;;
2604;SDS011;1312;50.298;8.520;2024-03-02T12:28:22;7.70;;;7.20;;
2604;SDS011;1312;50.298;8.520;2024-03-02T12:30:50;7.00;;;6.60;;
2604;SDS011;1312;50.298;8.520;2024-03-02T12:33:19;6.83;;;5.53;;
2604;SDS011;1312;50.298;8.520;2024-03-02T12:35:48;6.60;;;6.20;;
2604;SDS011;1312;50.298;8.520;2024-03-02T12:38:17;7.00;;;6.50;;
2604;SDS011;1312;50.298;8.520;2024-03-02T12:40:47;7.40;;;6.90;;
2604;SDS011;1312;50.298;8.520;2024-03-02T12:43:15;6.47;;;6.07;;
2604;SDS011;1312;50.298;8.520;2024-03-02T12:45:44;5.87;;;5.53;;
2604;SDS011;1312;50.298;8.520;2024-03-02T12:48:12;5.67;;;5.30;;
2604;SDS011;1312;50.298;8.520;2024-03-02T12:50:41;5.50;;;5.10;;
2604;SDS011;1312;50.298;8.520;2024-03-02T12:53:13;6.10;;;5.63;;
2604;SDS011;1312;50.298;8.520;2024-03-02T12:55:42;5.97;;;5.57;;
2604;SDS011;1312;50.298;8.520;2024-03-02T12:58:16;6.73;;;6.13;;
2604;SDS011;1312;50.298;8.520;2024-03-02T13:00:46;5.70;;;5.30;;
2604;SDS011;1312;50.298;8.520;2024-03-02T13:03:14;6.60;;;6.07;;
2604;SDS011;1312;50.298;8.520;2024-03-02T13:05:48;6.87;;;6.37;;
2604;SDS011;1312;50.298;8.520;2024-03-02T13:08:17;5.10;;;4.70;;
2604;SDS011;1312;50.298;8.520;2024-03-02T13:10:45;5.10;;;4.80;;
2604;SDS011;1312;50.298;8.520;2024-03-02T13:13:13;5.80;;;5.40;;
2604;SDS011;1312;50.298;8.520;2024-03-02T13:15:41;5.07;;;4.67;;
2604;SDS011;1312;50.298;8.520;2024-03-02T13:18:11;4.83;;;4.50;;
2604;SDS011;1312;50.298;8.520;2024-03-02T13:20:40;5.60;;;5.10;;
2604;SDS011;1312;50.298;8.520;2024-03-02T13:23:07;5.33;;;4.93;;
2604;SDS011;1312;50.298;8.520;2024-03-02T13:25:36;5.37;;;4.97;;
2604;SDS011;1312;50.298;8.520;2024-03-02T13:28:04;5.50;;;5.10;;
2604;SDS011;1312;50.298;8.520;2024-03-02T13:30:33;5.73;;;5.33;;
2604;SDS011;1312;50.298;8.520;2024-03-02T13:33:01;6.27;;;5.87;;
2604;SDS011;1312;50.298;8.520;2024-03-02T13:35:31;7.27;;;6.67;;
2604;SDS011;1312;50.298;8.520;2024-03-02T13:37:59;8.00;;;7.30;;
2604;SDS011;1312;50.298;8.520;2024-03-02T13:40:27;7.40;;;6.80;;
2604;SDS011;1312;50.298;8.520;2024-03-02T13:42:56;8.47;;;7.77;;
2604;SDS011;1312;50.298;8.520;2024-03-02T13:45:24;8.87;;;8.17;;
2604;SDS011;1312;50.298;8.520;2024-03-02T13:47:53;7.50;;;7.00;;
2604;SDS011;1312;50.298;8.520;2024-03-02T13:50:21;8.17;;;7.40;;
2604;SDS011;1312;50.298;8.520;2024-03-02T13:52:50;6.80;;;6.30;;
2604;SDS011;1312;50.298;8.520;2024-03-02T13:55:18;7.40;;;6.80;;
2604;SDS011;1312;50.298;8.520;2024-03-02T13:57:46;8.23;;;7.57;;
2604;SDS011;1312;50.298;8.520;2024-03-02T14:00:16;7.97;;;7.37;;
2604;SDS011;1312;50.298;8.520;2024-03-02T14:02:45;6.97;;;6.37;;
2604;SDS011;1312;50.298;8.520;2024-03-02T14:05:16;7.20;;;6.70;;
2604;SDS011;1312;50.298;8.520;2024-03-02T14:07:45;8.10;;;7.40;;
2604;SDS011;1312;50.298;8.520;2024-03-02T14:10:14;7.90;;;7.20;;
2604;SDS011;1312;50.298;8.520;2024-03-02T14:12:44;7.60;;;7.00;;
2604;SDS011;1312;50.298;8.520;2024-03-02T14:15:12;7.73;;;7.03;;
2604;SDS011;1312;50.298;8.520;2024-03-02T14:17:40;7.00;;;6.40;;
2604;SDS011;1312;50.298;8.520;2024-03-02T14:20:09;7.00;;;6.50;;
2604;SDS011;1312;50.298;8.520;2024-03-02T14:22:39;6.70;;;6.13;;
2604;SDS011;1312;50.298;8.520;2024-03-02T14:25:08;6.70;;;6.20;;
2604;SDS011;1312;50.298;8.520;2024-03-02T14:27:37;6.30;;;5.90;;
2604;SDS011;1312;50.298;8.520;2024-03-02T14:30:25;7.30;;;6.70;;
2604;SDS011;1312;50.298;8.520;2024-03-02T14:32:53;7.00;;;6.50;;
2604;SDS011;1312;50.298;8.520;2024-03-02T14:35:21;7.40;;;6.80;;
2604;SDS011;1312;50.298;8.520;2024-03-02T14:37:50;7.60;;;7.00;;
2604;SDS011;1312;50.298;8.520;2024-03-02T14:40:19;6.27;;;5.70;;
2604;SDS011;1312;50.298;8.520;2024-03-02T14:42:49;6.80;;;6.10;;
2604;SDS011;1312;50.298;8.520;2024-03-02T14:45:17;7.50;;;6.80;;
2604;SDS011;1312;50.298;8.520;2024-03-02T14:47:45;7.20;;;6.50;;
2604;SDS011;1312;50.298;8.520;2024-03-02T14:50:13;8.97;;;7.20;;
2604;SDS011;1312;50.298;8.520;2024-03-02T14:52:43;6.60;;;6.10;;
2604;SDS011;1312;50.298;8.520;2024-03-02T14:55:11;7.50;;;6.90;;
2604;SDS011;1312;50.298;8.520;2024-03-02T14:57:40;7.90;;;7.40;;
2604;SDS011;1312;50.298;8.520;2024-03-02T15:00:10;7.47;;;6.97;;
2604;SDS011;1312;50.298;8.520;2024-03-02T15:02:39;8.00;;;7.27;;
2604;SDS011;1312;50.298;8.520;2024-03-02T15:05:07;7.00;;;6.50;;
2604;SDS011;1312;50.298;8.520;2024-03-02T15:07:35;6.20;;;5.70;;
2604;SDS011;1312;50.298;8.520;2024-03-02T15:10:05;6.00;;;5.50;;
2604;SDS011;1312;50.298;8.520;2024-03-02T15:12:34;6.10;;;5.70;;
2604;SDS011;1312;50.298;8.520;2024-03-02T15:15:03;5.90;;;5.40;;
2604;SDS011;1312;50.298;8.520;2024-03-02T15:17:32;6.43;;;6.03;;